createdAt,value
2023-02-24T00:02:05.508Z,50.30
2023-02-24T00:04:35.734Z,44.13
2023-02-24T00:07:02.884Z,46.33
2023-02-24T00:09:31.101Z,42.20
2023-02-24T00:12:01.377Z,48.80
2023-02-24T00:14:30.918Z,43.15
2023-02-24T00:16:58.655Z,46.33
2023-02-24T00:19:27.469Z,45.97
2023-02-24T00:21:56.854Z,45.17
2023-02-24T00:24:24.637Z,48.30
2023-02-24T00:26:56.084Z,46.33
2023-02-24T00:29:26.741Z,42.10
2023-02-24T00:31:59.355Z,43.45
2023-02-24T00:34:30.907Z,42.42
2023-02-24T00:36:58.229Z,45.97
2023-02-24T00:39:33.339Z,47.13
2023-02-24T00:42:06.518Z,46.38
2023-02-24T00:44:39.674Z,43.47
2023-02-24T00:47:08.331Z,48.35
2023-02-24T00:49:36.523Z,45.08
2023-02-24T00:52:04.712Z,43.70
2023-02-24T00:54:31.296Z,45.25
2023-02-24T00:56:57.764Z,48.33
2023-02-24T00:59:24.276Z,46.65
2023-02-24T01:01:51.369Z,46.67
2023-02-24T01:04:19.017Z,47.10
2023-02-24T01:06:48.554Z,45.78
2023-02-24T01:09:19.311Z,49.60
2023-02-24T01:12:14.168Z,51.08
2023-02-24T01:14:40.871Z,47.13
2023-02-24T01:17:08.524Z,49.42
2023-02-24T01:19:36.720Z,44.88
2023-02-24T01:22:05.888Z,51.25
2023-02-24T01:24:35.156Z,47.55
2023-02-24T01:27:01.871Z,48.50
2023-02-24T01:32:53.852Z,45.55
2023-02-24T01:35:20.656Z,44.63
2023-02-24T01:37:47.949Z,50.83
2023-02-24T01:40:21.235Z,45.10
2023-02-24T01:42:49.270Z,50.30
2023-02-24T01:45:22.026Z,47.30
2023-02-24T01:47:49.865Z,43.72
2023-02-24T01:50:21.725Z,43.13
2023-02-24T01:52:51.632Z,45.53
2023-02-24T01:55:34.323Z,47.67
2023-02-24T01:58:06.622Z,44.78
2023-02-24T02:00:53.447Z,47.60
2023-02-24T02:03:24.183Z,45.22
2023-02-24T02:05:51.896Z,46.45
2023-02-24T02:08:19.754Z,47.70
2023-02-24T02:10:46.853Z,45.75
2023-02-24T02:13:22.855Z,44.70
2023-02-24T02:16:00.177Z,43.47
2023-02-24T02:18:49.740Z,44.63
2023-02-24T02:21:40.213Z,46.17
2023-02-24T02:24:30.513Z,45.45
2023-02-24T02:27:20.936Z,41.78
2023-02-24T02:30:32.345Z,45.95
2023-02-24T02:33:13.792Z,44.42
2023-02-24T02:36:07.759Z,41.10
2023-02-24T02:38:44.028Z,42.65
2023-02-24T02:41:24.519Z,43.97
2023-02-24T02:43:59.319Z,41.78
2023-02-24T02:46:35.342Z,44.17
2023-02-24T02:49:09.402Z,40.33
2023-02-24T02:51:42.740Z,44.88
2023-02-24T02:54:16.975Z,40.60
2023-02-24T02:56:56.649Z,37.95
2023-02-24T02:59:26.560Z,41.75
2023-02-24T03:02:01.140Z,39.40
2023-02-24T03:04:29.841Z,41.00
2023-02-24T03:07:01.659Z,38.80
2023-02-24T03:09:38.739Z,39.67
2023-02-24T03:12:10.246Z,39.85
2023-02-24T03:14:40.387Z,41.13
2023-02-24T03:17:12.891Z,38.33
2023-02-24T03:19:41.755Z,39.30
2023-02-24T03:22:15.361Z,39.20
2023-02-24T03:24:44.217Z,44.67
2023-02-24T03:27:27.102Z,38.47
2023-02-24T03:29:59.955Z,41.85
2023-02-24T03:32:40.969Z,42.20
2023-02-24T03:35:16.862Z,40.00
2023-02-24T03:37:47.303Z,43.28
2023-02-24T03:40:15.691Z,39.10
2023-02-24T03:42:54.493Z,40.30
2023-02-24T03:45:23.045Z,39.72
2023-02-24T03:47:51.056Z,41.85
2023-02-24T03:50:20.290Z,44.33
2023-02-24T03:53:30.727Z,43.30
2023-02-24T03:56:22.595Z,42.33
2023-02-24T03:59:12.893Z,43.97
2023-02-24T04:01:51.803Z,43.67
2023-02-24T04:04:35.017Z,38.72
2023-02-24T04:07:23.726Z,40.60
2023-02-24T04:10:10.542Z,45.95
2023-02-24T04:12:55.992Z,42.50
2023-02-24T04:15:29.486Z,44.30
2023-02-24T04:18:01.272Z,40.83
2023-02-24T04:20:35.430Z,44.80
2023-02-24T04:23:12.141Z,41.92
2023-02-24T04:25:42.966Z,42.40
2023-02-24T04:28:10.481Z,45.00
2023-02-24T04:30:43.705Z,40.67
2023-02-24T04:33:12.339Z,39.30
2023-02-24T04:35:40.398Z,45.28
2023-02-24T04:38:07.353Z,43.08
2023-02-24T04:40:34.686Z,41.63
2023-02-24T04:43:01.182Z,39.05
2023-02-24T04:45:29.961Z,41.95
2023-02-24T04:48:02.116Z,40.08
2023-02-24T04:50:35.114Z,39.85
2023-02-24T04:53:09.234Z,41.30
2023-02-24T04:55:42.318Z,43.45
2023-02-24T04:58:13.525Z,40.47
2023-02-24T05:00:41.849Z,43.03
2023-02-24T05:03:11.288Z,40.38
2023-02-24T05:05:38.222Z,42.03
2023-02-24T05:08:07.678Z,46.55
2023-02-24T05:10:41.571Z,39.15
2023-02-24T05:13:09.177Z,46.58
2023-02-24T05:15:40.662Z,40.92
2023-02-24T05:18:31.069Z,40.90
2023-02-24T05:21:16.107Z,42.53
2023-02-24T05:23:45.306Z,43.00
2023-02-24T05:26:16.786Z,41.47
2023-02-24T05:28:49.051Z,41.50
2023-02-24T05:31:18.833Z,47.80
2023-02-24T05:33:48.449Z,46.13
2023-02-24T05:36:18.422Z,43.08
2023-02-24T05:38:47.135Z,43.70
2023-02-24T05:41:22.856Z,41.13
2023-02-24T05:43:54.982Z,46.35
2023-02-24T05:46:29.916Z,45.25
2023-02-24T05:49:01.384Z,46.22
2023-02-24T05:51:35.162Z,41.97
2023-02-24T05:54:10.064Z,44.85
2023-02-24T05:56:39.206Z,42.60
2023-02-24T05:59:08.992Z,40.67
2023-02-24T06:01:41.237Z,42.03
2023-02-24T06:04:09.063Z,43.80
2023-02-24T06:06:38.049Z,40.38
2023-02-24T06:09:09.000Z,43.20
2023-02-24T06:11:35.502Z,42.08
2023-02-24T06:14:02.874Z,44.58
2023-02-24T06:16:30.230Z,47.42
2023-02-24T06:18:58.166Z,48.42
2023-02-24T06:21:29.114Z,43.38
2023-02-24T06:24:00.240Z,45.92
2023-02-24T06:26:29.805Z,48.97
2023-02-24T06:28:58.740Z,46.08
2023-02-24T06:31:27.277Z,45.25
2023-02-24T06:33:54.201Z,45.60
2023-02-24T06:36:22.073Z,54.20
2023-02-24T06:38:52.549Z,43.00
2023-02-24T06:41:19.237Z,48.15
2023-02-24T06:43:47.027Z,45.63
2023-02-24T06:46:15.872Z,46.00
2023-02-24T06:48:42.611Z,44.83
2023-02-24T06:51:13.596Z,45.22
2023-02-24T06:53:43.555Z,48.75
2023-02-24T06:56:15.346Z,47.20
2023-02-24T06:58:43.731Z,42.25
2023-02-24T07:01:17.168Z,49.33
2023-02-24T07:04:03.561Z,47.50
2023-02-24T07:06:38.198Z,47.03
2023-02-24T07:09:08.562Z,43.28
2023-02-24T07:11:36.383Z,47.53
2023-02-24T07:14:05.739Z,47.53
2023-02-24T07:16:34.347Z,43.67
2023-02-24T07:19:05.088Z,45.45
2023-02-24T07:21:39.727Z,46.47
2023-02-24T07:24:13.320Z,48.92
2023-02-24T07:26:41.687Z,46.90
2023-02-24T07:29:12.161Z,45.03
2023-02-24T07:31:39.692Z,44.90
2023-02-24T07:34:06.421Z,45.17
2023-02-24T07:36:39.051Z,43.47
2023-02-24T07:39:09.247Z,46.63
2023-02-24T07:41:37.576Z,41.28
2023-02-24T07:44:08.522Z,43.47
2023-02-24T07:46:35.084Z,49.63
2023-02-24T07:49:03.458Z,45.75
2023-02-24T07:51:30.846Z,39.45
2023-02-24T07:54:00.243Z,46.63
2023-02-24T07:56:29.297Z,49.20
2023-02-24T07:59:02.081Z,44.40
2023-02-24T08:01:31.075Z,43.85
2023-02-24T08:04:08.032Z,43.97
2023-02-24T08:06:45.463Z,43.83
2023-02-24T08:09:20.473Z,46.50
2023-02-24T08:11:52.327Z,47.33
2023-02-24T08:14:24.653Z,45.83
2023-02-24T08:16:59.163Z,42.70
2023-02-24T08:19:32.668Z,42.33
2023-02-24T08:22:20.311Z,46.30
2023-02-24T08:25:00.588Z,41.05
2023-02-24T08:27:32.069Z,44.17
2023-02-24T08:30:00.896Z,47.00
2023-02-24T08:32:34.018Z,44.05
2023-02-24T08:35:03.374Z,44.42
2023-02-24T08:37:39.456Z,45.50
2023-02-24T08:40:29.619Z,50.13
2023-02-24T08:43:19.151Z,41.30
2023-02-24T08:45:59.323Z,48.45
2023-02-24T08:48:38.549Z,46.53
2023-02-24T08:51:10.251Z,47.22
2023-02-24T08:53:40.508Z,48.80
2023-02-24T08:56:11.321Z,41.13
2023-02-24T08:58:47.324Z,44.95
2023-02-24T09:01:24.036Z,42.50
2023-02-24T09:03:57.067Z,39.13
2023-02-24T09:06:37.953Z,42.53
2023-02-24T09:09:22.998Z,42.97
2023-02-24T09:11:59.885Z,37.83
2023-02-24T09:14:36.318Z,43.78
2023-02-24T09:17:06.836Z,44.40
2023-02-24T09:19:48.179Z,43.63
2023-02-24T09:22:32.530Z,43.78
2023-02-24T09:25:18.293Z,41.92
2023-02-24T09:27:52.291Z,41.28
2023-02-24T09:30:36.081Z,38.45
2023-02-24T09:33:20.946Z,38.88
2023-02-24T09:35:51.595Z,38.90
2023-02-24T09:38:36.163Z,37.55
2023-02-24T09:41:18.447Z,37.80
2023-02-24T09:43:45.415Z,37.90
2023-02-24T09:46:15.820Z,40.08
2023-02-24T09:48:54.421Z,34.75
2023-02-24T09:51:22.998Z,35.60
2023-02-24T09:53:53.631Z,33.58
2023-02-24T09:56:42.347Z,33.17
2023-02-24T09:59:26.288Z,32.50
2023-02-24T10:02:10.133Z,35.50
2023-02-24T10:04:48.960Z,33.92
2023-02-24T10:07:20.068Z,31.48
2023-02-24T10:10:18.712Z,29.88
2023-02-24T10:12:58.404Z,28.90
2023-02-24T10:16:06.208Z,27.42
2023-02-24T10:18:41.192Z,28.67
2023-02-24T10:21:16.313Z,30.65
2023-02-24T10:23:56.422Z,31.33
2023-02-24T10:26:34.709Z,30.70
2023-02-24T10:29:18.943Z,29.73
2023-02-24T10:31:48.175Z,27.55
2023-02-24T10:34:24.064Z,29.50
2023-02-24T10:36:51.716Z,26.48
2023-02-24T10:39:25.510Z,24.63
2023-02-24T10:44:36.152Z,24.67
2023-02-24T10:47:17.786Z,29.60
2023-02-24T10:49:58.455Z,25.08
2023-02-24T10:52:51.097Z,25.00
2023-02-24T10:55:49.865Z,24.67
2023-02-24T10:58:29.029Z,27.63
2023-02-24T11:01:21.747Z,25.23
2023-02-24T11:04:22.620Z,28.13
2023-02-24T11:06:53.933Z,25.27
2023-02-24T11:09:28.884Z,24.30
2023-02-24T11:12:16.489Z,23.70
2023-02-24T11:15:16.328Z,24.45
2023-02-24T11:18:16.322Z,24.38
2023-02-24T11:20:49.683Z,21.20
2023-02-24T11:23:22.198Z,22.33
2023-02-24T11:25:58.154Z,24.63
2023-02-24T11:28:48.887Z,23.00
2023-02-24T11:31:25.139Z,20.50
2023-02-24T11:34:12.118Z,22.27
2023-02-24T11:37:06.723Z,20.95
2023-02-24T11:40:02.237Z,18.80
2023-02-24T11:42:43.645Z,19.55
2023-02-24T11:45:34.972Z,17.58
2023-02-24T11:48:25.218Z,18.33
2023-02-24T11:51:20.233Z,18.95
2023-02-24T11:54:12.799Z,19.35
2023-02-24T11:56:43.940Z,21.17
2023-02-24T11:59:22.478Z,21.95
2023-02-24T12:02:10.819Z,16.75
2023-02-24T12:05:01.811Z,22.88
2023-02-24T12:08:17.246Z,16.83
2023-02-24T12:10:49.916Z,14.75
2023-02-24T12:13:29.500Z,16.00
2023-02-24T12:16:07.768Z,15.23
2023-02-24T12:18:37.083Z,15.77
2023-02-24T12:21:13.278Z,14.98
2023-02-24T12:23:42.906Z,13.80
2023-02-24T12:26:21.733Z,19.15
2023-02-24T12:29:30.006Z,18.20
2023-02-24T12:32:10.858Z,17.60
2023-02-24T12:35:00.226Z,16.02
2023-02-24T12:38:05.158Z,16.13
2023-02-24T12:41:16.274Z,14.13
2023-02-24T12:44:11.873Z,15.60
2023-02-24T12:46:39.994Z,15.55
2023-02-24T12:49:43.671Z,19.30
2023-02-24T12:52:24.722Z,15.57
2023-02-24T12:55:00.383Z,13.85
2023-02-24T12:57:47.270Z,16.15
2023-02-24T13:00:29.713Z,13.48
2023-02-24T13:03:08.786Z,12.43
2023-02-24T13:05:52.200Z,10.88
2023-02-24T13:08:28.426Z,13.57
2023-02-24T13:11:21.498Z,14.27
2023-02-24T13:14:05.563Z,14.73
2023-02-24T13:16:34.528Z,14.85
2023-02-24T13:19:25.669Z,14.82
2023-02-24T13:22:13.891Z,12.60
2023-02-24T13:24:43.033Z,12.63
2023-02-24T13:27:12.608Z,13.55
2023-02-24T13:30:00.943Z,10.80
2023-02-24T13:32:31.847Z,11.32
2023-02-24T13:35:05.484Z,11.85
2023-02-24T13:37:31.989Z,14.13
2023-02-24T13:39:58.793Z,10.82
2023-02-24T13:42:31.711Z,10.30
2023-02-24T13:45:10.378Z,9.07
2023-02-24T13:48:14.531Z,11.02
2023-02-24T13:51:13.696Z,15.27
2023-02-24T13:54:07.713Z,13.98
2023-02-24T13:56:48.535Z,12.15
2023-02-24T13:59:36.429Z,10.55
2023-02-24T14:02:16.902Z,13.25
2023-02-24T14:04:56.188Z,12.68
2023-02-24T14:07:26.045Z,13.35
2023-02-24T14:09:59.418Z,12.38
2023-02-24T14:12:32.422Z,10.55
2023-02-24T14:14:59.389Z,11.50
2023-02-24T14:17:36.910Z,11.35
2023-02-24T14:20:06.653Z,11.38
2023-02-24T14:22:34.621Z,9.27
2023-02-24T14:25:05.139Z,8.52
2023-02-24T14:27:32.075Z,8.20
2023-02-24T14:29:58.619Z,10.48
2023-02-24T14:32:27.265Z,10.60
2023-02-24T14:34:54.997Z,8.93
2023-02-24T14:37:30.789Z,9.77
2023-02-24T14:39:59.709Z,13.70
2023-02-24T14:42:27.955Z,10.23
2023-02-24T14:44:57.642Z,12.07
2023-02-24T14:47:27.243Z,9.98
2023-02-24T14:49:59.817Z,11.48
2023-02-24T14:52:53.472Z,10.85
2023-02-24T14:55:29.910Z,10.40
2023-02-24T14:58:20.003Z,9.18
2023-02-24T15:01:02.421Z,8.60
2023-02-24T15:03:37.285Z,9.93
2023-02-24T15:06:13.097Z,10.57
2023-02-24T15:08:42.864Z,8.57
2023-02-24T15:11:30.945Z,8.77
2023-02-24T15:13:59.847Z,11.73
2023-02-24T15:16:36.958Z,10.82
2023-02-24T15:19:04.189Z,8.27
2023-02-24T15:21:40.264Z,12.30
2023-02-24T15:24:29.420Z,9.45
2023-02-24T15:26:57.890Z,10.85
2023-02-24T15:29:27.752Z,10.68
2023-02-24T15:31:56.131Z,9.98
2023-02-24T15:34:27.103Z,12.25
2023-02-24T15:37:01.088Z,10.57
2023-02-24T15:39:31.215Z,7.90
2023-02-24T15:42:28.805Z,9.50
2023-02-24T15:45:00.432Z,9.30
2023-02-24T15:47:40.844Z,9.60
2023-02-24T15:50:07.833Z,8.43
2023-02-24T15:52:36.339Z,10.23
2023-02-24T15:55:04.247Z,10.75
2023-02-24T15:57:32.828Z,12.93
2023-02-24T15:59:59.866Z,12.95
2023-02-24T16:02:27.979Z,9.20
2023-02-24T16:04:54.406Z,12.77
2023-02-24T16:07:30.414Z,9.27
2023-02-24T16:09:59.537Z,10.50
2023-02-24T16:12:33.468Z,13.85
2023-02-24T16:17:37.582Z,10.25
2023-02-24T16:20:09.071Z,11.38
2023-02-24T16:22:35.970Z,11.93
2023-02-24T16:25:03.329Z,11.77
2023-02-24T16:27:30.524Z,10.65
2023-02-24T16:29:58.109Z,11.75
2023-02-24T16:32:26.946Z,12.05
2023-02-24T16:34:53.877Z,12.90
2023-02-24T16:37:23.598Z,10.52
2023-02-24T16:39:50.828Z,10.70
2023-02-24T16:42:18.604Z,9.55
2023-02-24T16:44:48.901Z,11.73
2023-02-24T16:47:20.470Z,9.90
2023-02-24T16:49:47.077Z,12.48
2023-02-24T16:52:13.822Z,11.63
2023-02-24T16:54:40.483Z,13.13
2023-02-24T16:57:07.015Z,11.02
2023-02-24T16:59:33.579Z,11.10
2023-02-24T17:02:02.096Z,10.27
2023-02-24T17:04:29.349Z,12.13
2023-02-24T17:06:55.892Z,14.13
2023-02-24T17:09:22.639Z,11.38
2023-02-24T17:11:49.228Z,11.00
2023-02-24T17:14:20.721Z,13.70
2023-02-24T17:16:47.748Z,12.52
2023-02-24T17:19:14.740Z,10.80
2023-02-24T17:21:44.276Z,11.10
2023-02-24T17:24:19.308Z,11.48
2023-02-24T17:26:46.475Z,11.07
2023-02-24T17:29:14.639Z,10.38
2023-02-24T17:31:42.295Z,9.35
2023-02-24T17:34:09.952Z,9.35
2023-02-24T17:36:36.472Z,7.40
2023-02-24T17:39:03.310Z,10.77
2023-02-24T17:41:29.896Z,10.55
2023-02-24T17:43:56.618Z,11.02
2023-02-24T17:46:23.602Z,9.25
2023-02-24T17:48:51.627Z,9.18
2023-02-24T17:51:19.874Z,9.35
2023-02-24T17:53:46.413Z,8.77
2023-02-24T17:56:12.966Z,7.03
2023-02-24T17:58:40.027Z,5.88
2023-02-24T18:01:07.424Z,8.38
2023-02-24T18:03:35.581Z,8.52
2023-02-24T18:06:11.654Z,12.02
2023-02-24T18:08:39.477Z,8.90
2023-02-24T18:11:07.763Z,8.48
2023-02-24T18:13:34.746Z,7.78
2023-02-24T18:16:01.799Z,8.18
2023-02-24T18:18:30.221Z,8.65
2023-02-24T18:21:02.005Z,7.65
2023-02-24T18:23:29.072Z,6.05
2023-02-24T18:25:55.573Z,5.72
2023-02-24T18:28:22.278Z,6.65
2023-02-24T18:30:48.924Z,6.32
2023-02-24T18:33:15.656Z,7.75
2023-02-24T18:35:42.281Z,6.32
2023-02-24T18:38:08.767Z,6.10
2023-02-24T18:40:35.272Z,6.68
2023-02-24T18:43:01.759Z,5.25
2023-02-24T18:45:28.267Z,7.55
2023-02-24T18:47:54.814Z,4.78
2023-02-24T18:50:25.025Z,6.60
2023-02-24T18:52:51.987Z,7.97
2023-02-24T18:55:19.719Z,4.25
2023-02-24T18:57:47.358Z,4.93
2023-02-24T19:00:14.627Z,7.07
2023-02-24T19:02:41.216Z,4.63
2023-02-24T19:05:08.379Z,3.40
2023-02-24T19:07:34.905Z,4.93
2023-02-24T19:10:01.440Z,3.42
2023-02-24T19:12:28.000Z,4.88
2023-02-24T19:14:54.470Z,3.00
2023-02-24T19:17:21.043Z,4.32
2023-02-24T19:19:47.566Z,4.57
2023-02-24T19:22:14.091Z,3.80
2023-02-24T19:24:40.659Z,2.72
2023-02-24T19:27:08.610Z,4.18
2023-02-24T19:29:35.524Z,3.15
2023-02-24T19:32:02.375Z,3.55
2023-02-24T19:34:29.025Z,3.28
2023-02-24T19:36:55.560Z,5.07
2023-02-24T19:39:22.195Z,2.90
2023-02-24T19:41:49.892Z,2.70
2023-02-24T19:44:16.816Z,6.15
2023-02-24T19:46:43.443Z,3.72
2023-02-24T19:49:10.074Z,3.30
2023-02-24T19:51:36.722Z,4.75
2023-02-24T19:54:05.723Z,2.70
2023-02-24T19:56:35.846Z,3.85
2023-02-24T19:59:05.912Z,6.28
2023-02-24T20:01:32.638Z,4.68
2023-02-24T20:04:01.876Z,3.53
2023-02-24T20:06:35.598Z,4.25
2023-02-24T20:09:08.594Z,4.60
2023-02-24T20:11:39.159Z,4.03
2023-02-24T20:14:07.559Z,3.08
2023-02-24T20:16:36.808Z,4.63
2023-02-24T20:19:05.937Z,4.90
2023-02-24T20:21:33.356Z,8.50
2023-02-24T20:24:01.111Z,5.75
2023-02-24T20:26:28.898Z,5.13
2023-02-24T20:28:55.666Z,5.82
2023-02-24T20:31:23.803Z,4.25
2023-02-24T20:33:50.635Z,7.07
2023-02-24T20:36:23.571Z,4.72
2023-02-24T20:38:51.233Z,5.13
2023-02-24T20:41:20.348Z,6.72
2023-02-24T20:43:47.472Z,5.85
2023-02-24T20:46:23.904Z,6.95
2023-02-24T20:48:51.587Z,4.80
2023-02-24T20:51:18.238Z,6.40
2023-02-24T20:53:56.555Z,5.28
2023-02-24T20:56:25.647Z,5.75
2023-02-24T20:58:53.991Z,6.70
2023-02-24T21:01:21.304Z,6.80
2023-02-24T21:03:48.304Z,7.68
2023-02-24T21:06:17.060Z,7.53
2023-02-24T21:08:44.629Z,6.18
2023-02-24T21:11:12.926Z,5.93
2023-02-24T21:13:43.399Z,5.63
2023-02-24T21:16:11.888Z,8.40
2023-02-24T21:18:40.506Z,9.57
2023-02-24T21:21:08.049Z,8.00
2023-02-24T21:23:35.815Z,6.22
2023-02-24T21:26:02.400Z,8.63
2023-02-24T21:28:29.109Z,8.23
2023-02-24T21:30:55.699Z,8.77
2023-02-24T21:33:22.278Z,7.97
2023-02-24T21:36:03.279Z,8.07
2023-02-24T21:38:34.036Z,7.90
2023-02-24T21:41:07.298Z,8.95
2023-02-24T21:43:34.520Z,8.93
2023-02-24T21:46:03.006Z,7.10
2023-02-24T21:48:29.587Z,7.60
2023-02-24T21:51:04.176Z,6.32
2023-02-24T21:53:35.563Z,8.95
2023-02-24T21:56:10.834Z,9.10
2023-02-24T21:58:39.382Z,9.50
2023-02-24T22:01:14.280Z,9.98
2023-02-24T22:03:41.282Z,9.80
2023-02-24T22:06:10.139Z,7.45
2023-02-24T22:08:37.799Z,8.75
2023-02-24T22:11:04.456Z,10.38
2023-02-24T22:13:30.931Z,9.73
2023-02-24T22:16:01.886Z,8.93
2023-02-24T22:18:29.121Z,7.68
2023-02-24T22:20:55.655Z,9.60
2023-02-24T22:23:22.167Z,10.85
2023-02-24T22:25:48.728Z,12.45
2023-02-24T22:28:15.203Z,14.65
2023-02-24T22:30:41.721Z,9.50
2023-02-24T22:33:08.311Z,8.15
2023-02-24T22:35:35.402Z,9.68
2023-02-24T22:38:02.278Z,9.15
2023-02-24T22:40:28.776Z,11.38
2023-02-24T22:42:55.380Z,10.77
2023-02-24T22:45:22.356Z,9.35
2023-02-24T22:47:48.879Z,10.60
2023-02-24T22:50:15.675Z,13.25
2023-02-24T22:52:42.166Z,8.52
2023-02-24T22:55:09.982Z,12.18
2023-02-24T22:57:36.525Z,8.82
2023-02-24T23:00:04.986Z,11.55
2023-02-24T23:02:31.491Z,8.60
2023-02-24T23:04:58.061Z,8.88
2023-02-24T23:07:24.528Z,9.45
2023-02-24T23:09:52.916Z,8.38
2023-02-24T23:12:20.731Z,8.82
2023-02-24T23:14:47.291Z,7.85
2023-02-24T23:17:13.763Z,7.85
2023-02-24T23:19:40.234Z,7.85
2023-02-24T23:22:07.936Z,11.98
2023-02-24T23:24:34.710Z,9.65
2023-02-24T23:27:01.239Z,9.75
2023-02-24T23:29:27.816Z,6.47
2023-02-24T23:31:54.496Z,10.10
2023-02-24T23:34:21.215Z,9.20
2023-02-24T23:36:47.826Z,6.25
2023-02-24T23:39:16.641Z,10.18
2023-02-24T23:41:43.257Z,9.52
2023-02-24T23:44:10.068Z,9.68
2023-02-24T23:46:37.080Z,10.60
2023-02-24T23:49:04.610Z,11.52
2023-02-24T23:51:46.998Z,8.00
2023-02-24T23:54:15.068Z,11.80
2023-02-24T23:56:41.649Z,10.70
2023-02-24T23:59:08.324Z,7.15
